Time;durP1;ratioP1;P1;durP2;ratioP2;P2;SDS_P1;SDS_P2;PMS_P1;PMS_P2;Temp;Humidity;BMP_temperature;BMP_pressure;BME280_temperature;BME280_humidity;BME280_pressure;Samples;Min_cycle;Max_cycle;Signal;HPM_P1;HPM_P2
2022/08/02 00:00:19;;;;;;;6.20;2.70;;;;;;;20.90;76.07;98632.88;25150;1313;3026512;-66
2022/08/02 00:02:48;;;;;;;4.90;2.50;;;;;;;20.81;75.60;98609.02;25060;1318;3056132;-65
2022/08/02 00:05:17;;;;;;;4.90;2.80;;;;;;;20.66;75.73;98617.30;25119;1313;3026627;-66
2022/08/02 00:07:47;;;;;;;4.90;2.60;;;;;;;20.48;75.97;98654.02;25094;1313;3054741;-64
2022/08/02 00:10:16;;;;;;;3.50;2.20;;;;;;;20.31;76.66;98693.64;25051;1315;3026838;-66
2022/08/02 00:12:46;;;;;;;2.80;2.00;;;;;;;20.68;76.06;98712.13;25130;1313;3026839;-64
2022/08/02 00:15:15;;;;;;;7.90;2.60;;;;;;;21.05;75.06;98713.55;25148;1312;3026385;-65
2022/08/02 00:17:45;;;;;;;6.10;3.00;;;;;;;20.98;75.52;98708.80;25074;1313;3026250;-66
2022/08/02 00:20:14;;;;;;;7.70;3.30;;;;;;;20.78;76.15;98699.43;25137;1313;3026788;-64
2022/08/02 00:22:44;;;;;;;6.10;3.20;;;;;;;20.54;77.19;98703.06;25129;1315;3027097;-65
2022/08/02 00:25:13;;;;;;;3.70;2.10;;;;;;;20.33;78.21;98710.02;25076;1317;3026553;-64
2022/08/02 00:27:42;;;;;;;4.30;2.30;;;;;;;20.75;77.17;98703.61;25157;1313;3027072;-63
2022/08/02 00:30:12;;;;;;;11.60;3.20;;;;;;;21.06;75.62;98689.91;25097;1318;3027732;-65
2022/08/02 00:32:41;;;;;;;5.10;3.00;;;;;;;20.95;75.60;98673.59;25112;1313;3027345;-66
2022/08/02 00:35:11;;;;;;;5.50;3.40;;;;;;;20.72;76.05;98655.05;25109;1315;3026809;-65
2022/08/02 00:37:40;;;;;;;4.90;3.40;;;;;;;20.46;76.85;98641.66;25111;1316;3026470;-64
2022/08/02 00:40:10;;;;;;;4.40;2.40;;;;;;;20.34;77.11;98622.42;25126;1313;3026542;-65
2022/08/02 00:42:40;;;;;;;2.70;2.10;;;;;;;20.83;75.56;98593.48;25129;1318;3027525;-64
2022/08/02 00:45:12;;;;;;;6.20;3.10;;;;;;;21.24;73.82;98568.35;25101;1313;3027439;-65
2022/08/02 00:47:42;;;;;;;7.20;3.00;;;;;;;21.13;73.53;98546.67;25116;1313;3026283;-64
2022/08/02 00:50:11;;;;;;;5.50;3.00;;;;;;;20.78;74.31;98529.27;25131;1315;3027211;-63
2022/08/02 00:52:41;;;;;;;4.80;2.60;;;;;;;20.56;74.99;98511.14;25070;1315;3026806;-66
2022/08/02 00:55:10;;;;;;;5.50;2.80;;;;;;;20.36;75.37;98496.65;25125;1313;3027047;-65
2022/08/02 00:57:46;;;;;;;8.00;2.60;;;;;;;20.19;76.18;98500.95;25120;1312;3058481;-64
2022/08/02 01:00:16;;;;;;;5.90;2.50;;;;;;;20.71;75.12;98543.28;25089;1313;3050141;-66
2022/08/02 01:02:46;;;;;;;4.90;2.70;;;;;;;21.06;74.09;98607.91;25157;1313;3026667;-64
2022/08/02 01:05:15;;;;;;;5.40;3.40;;;;;;;21.03;73.76;98658.98;25113;1315;3026676;-68
2022/08/02 01:07:44;;;;;;;4.40;2.90;;;;;;;20.74;74.50;98690.98;25116;1318;3049095;-65
2022/08/02 01:10:13;;;;;;;8.50;3.40;;;;;;;20.48;75.56;98702.56;25065;1316;3026785;-64
2022/08/02 01:12:43;;;;;;;4.00;2.70;;;;;;;20.27;76.47;98714.27;25095;1315;3058802;-65
2022/08/02 01:15:13;;;;;;;3.70;2.30;;;;;;;20.68;76.04;98716.41;25095;1313;3028451;-64
2022/08/02 01:18:04;;;;;;;5.20;3.20;;;;;;;20.89;74.99;98718.61;25052;1316;3027311;-66
2022/08/02 01:20:43;;;;;;;4.80;3.50;;;;;;;20.85;74.82;98703.02;25074;1318;3059246;-64
2022/08/02 01:23:51;;;;;;;8.50;5.70;;;;;;;20.67;74.87;98694.21;25084;1315;3050082;-65
2022/08/02 01:27:01;;;;;;;9.60;6.60;;;;;;;20.37;76.33;98693.55;25092;1316;3056032;-64
2022/08/02 01:29:33;;;;;;;9.20;5.40;;;;;;;20.20;77.35;98705.05;25071;1316;3054182;-65
2022/08/02 01:32:07;;;;;;;9.50;5.50;;;;;;;20.59;76.22;98705.14;25115;1313;3026826;-67
2022/08/02 01:34:48;;;;;;;8.20;5.80;;;;;;;20.76;75.60;98712.84;25102;1313;3049116;-65
2022/08/02 01:37:21;;;;;;;9.30;6.00;;;;;;;20.72;75.36;98717.84;25173;1313;3052895;-64
2022/08/02 01:39:54;;;;;;;9.00;6.60;;;;;;;20.64;75.38;98700.95;25129;1313;3054765;-65
2022/08/02 01:42:24;;;;;;;7.80;6.00;;;;;;;20.50;75.62;98689.08;25100;1315;3026146;-64
2022/08/02 01:44:53;;;;;;;9.60;6.00;;;;;;;20.38;75.95;98674.42;25060;1315;3026148;-64
2022/08/02 01:47:29;;;;;;;9.20;5.90;;;;;;;20.86;75.32;98672.31;25015;1316;3051585;-67
2022/08/02 01:49:58;;;;;;;7.80;5.50;;;;;;;21.19;73.96;98679.23;25102;1313;3055478;-66
2022/08/02 01:52:32;;;;;;;9.60;6.10;;;;;;;21.18;73.75;98687.84;25118;1313;3029235;-69
2022/08/02 01:55:43;;;;;;;8.00;5.50;;;;;;;20.92;74.10;98682.82;25154;1314;3053621;-64
2022/08/02 01:58:14;;;;;;;6.50;4.40;;;;;;;20.59;75.08;98675.39;24985;1318;3054139;-67
2022/08/02 02:00:43;;;;;;;6.20;4.00;;;;;;;20.38;75.41;98658.98;24986;1319;3026890;-64
2022/08/02 02:03:14;;;;;;;5.80;4.20;;;;;;;20.76;74.94;98641.13;24997;1316;3026407;-67
2022/08/02 02:05:43;;;;;;;5.90;4.40;;;;;;;21.08;73.97;98629.31;25109;1313;3026713;-64
2022/08/02 02:08:13;;;;;;;7.70;5.30;;;;;;;21.04;74.08;98628.82;25056;1316;3028588;-65
2022/08/02 02:10:42;;;;;;;10.90;5.00;;;;;;;20.86;74.55;98622.53;25080;1318;3026925;-67
2022/08/02 02:13:12;;;;;;;10.10;5.10;;;;;;;20.63;75.19;98620.09;25066;1318;3026551;-67
2022/08/02 02:15:44;;;;;;;9.10;6.20;;;;;;;20.47;75.68;98618.23;25137;1315;3052515;-67
2022/08/02 02:18:17;;;;;;;6.60;4.10;;;;;;;20.38;75.83;98614.20;25135;1316;3026700;-68
2022/08/02 02:20:46;;;;;;;5.90;4.40;;;;;;;20.96;74.45;98614.61;25113;1313;3026735;-66
2022/08/02 02:23:16;;;;;;;6.80;4.40;;;;;;;21.39;73.09;98617.15;25164;1313;3026618;-64
2022/08/02 02:25:46;;;;;;;6.40;4.60;;;;;;;21.28;72.61;98621.99;25149;1313;3026653;-66
2022/08/02 02:28:29;;;;;;;7.50;5.20;;;;;;;20.80;74.07;98628.57;25126;1313;3026888;-64
2022/08/02 02:31:01;;;;;;;9.70;5.80;;;;;;;20.40;75.73;98647.73;25147;1315;3051838;-64
2022/08/02 02:33:30;;;;;;;8.50;5.10;;;;;;;20.14;76.61;98666.27;25192;1315;3026940;-65
2022/08/02 02:36:00;;;;;;;5.60;3.80;;;;;;;20.03;77.02;98675.69;25099;1313;3026800;-66
2022/08/02 02:38:30;;;;;;;8.00;4.50;;;;;;;20.50;76.02;98668.11;25074;1315;3026961;-66
2022/08/02 02:41:00;;;;;;;12.70;5.50;;;;;;;20.75;74.61;98668.55;25137;1318;3055081;-65
2022/08/02 02:43:31;;;;;;;8.10;6.00;;;;;;;20.54;75.15;98682.84;25175;1313;3026870;-64
2022/08/02 02:46:04;;;;;;;11.30;6.10;;;;;;;20.44;75.81;98714.30;25072;1318;3026466;-66
2022/08/02 02:48:33;;;;;;;9.60;6.40;;;;;;;20.32;76.47;98749.13;25085;1319;3026552;-64
2022/08/02 02:51:03;;;;;;;9.30;4.90;;;;;;;20.22;76.90;98770.85;25132;1313;3026273;-63
2022/08/02 02:53:32;;;;;;;9.30;5.20;;;;;;;20.69;76.12;98772.44;25149;1313;3026528;-66
2022/08/02 02:56:01;;;;;;;8.80;5.40;;;;;;;21.09;74.87;98757.59;25049;1316;3026711;-64
2022/08/02 02:58:31;;;;;;;8.20;5.50;;;;;;;21.11;74.44;98741.02;25105;1315;3054906;-64
2022/08/02 03:03:48;;;;;;;7.80;5.40;;;;;;;20.67;75.32;98726.28;25031;1317;3069875;-65
2022/08/02 03:06:18;;;;;;;6.20;4.00;;;;;;;20.52;75.64;98736.33;25101;1315;3030270;-66
2022/08/02 03:08:47;;;;;;;6.10;4.40;;;;;;;20.90;75.10;98743.23;25149;1316;3052503;-64
2022/08/02 03:11:16;;;;;;;7.10;4.30;;;;;;;21.33;73.74;98752.73;25091;1313;3027186;-64
2022/08/02 03:13:46;;;;;;;7.00;4.60;;;;;;;21.31;73.39;98762.20;25149;1313;3027387;-64
2022/08/02 03:16:15;;;;;;;7.00;4.60;;;;;;;21.10;73.87;98772.23;25059;1316;3026330;-63
2022/08/02 03:18:44;;;;;;;6.70;5.10;;;;;;;20.84;74.46;98782.55;25028;1316;3028698;-64
2022/08/02 03:21:14;;;;;;;7.10;4.60;;;;;;;20.63;75.32;98783.48;25111;1313;3051461;-64
2022/08/02 03:23:43;;;;;;;4.60;3.30;;;;;;;20.51;75.74;98778.06;25075;1316;3026837;-63
2022/08/02 03:26:13;;;;;;;6.40;3.50;;;;;;;21.02;74.94;98778.46;25097;1315;3068406;-65
2022/08/02 03:28:43;;;;;;;6.20;4.50;;;;;;;21.47;72.97;98784.23;25184;1313;3026760;-63
2022/08/02 03:31:12;;;;;;;7.20;4.40;;;;;;;21.45;72.79;98781.05;25384;1316;3026903;-63
2022/08/02 03:33:41;;;;;;;6.20;4.10;;;;;;;21.21;73.37;98772.91;25424;1313;3026769;-64
2022/08/02 03:36:13;;;;;;;7.20;4.60;;;;;;;20.98;74.21;98760.63;25315;1315;3026264;-64
2022/08/02 03:38:43;;;;;;;9.00;6.40;;;;;;;20.84;74.17;98747.31;25126;1316;3054397;-64
2022/08/02 03:41:13;;;;;;;9.20;4.90;;;;;;;20.68;74.78;98749.84;25145;1313;3026464;-64
2022/08/02 03:43:43;;;;;;;7.10;4.40;;;;;;;21.16;73.94;98747.21;25046;1318;3051655;-67
2022/08/02 03:46:13;;;;;;;7.70;5.70;;;;;;;21.59;72.38;98733.45;25138;1316;3028815;-66
2022/08/02 03:48:43;;;;;;;9.20;5.70;;;;;;;21.53;72.32;98720.39;25066;1316;3026754;-65
2022/08/02 03:51:12;;;;;;;7.90;6.10;;;;;;;21.41;72.45;98713.45;25111;1315;3026864;-65
2022/08/02 03:53:41;;;;;;;11.70;7.70;;;;;;;21.20;72.82;98708.59;25138;1316;3051955;-65
2022/08/02 03:56:10;;;;;;;10.20;6.60;;;;;;;20.97;73.71;98709.07;25031;1313;3026792;-64
2022/08/02 03:58:39;;;;;;;9.10;6.50;;;;;;;20.85;74.30;98702.55;25066;1316;3027696;-63
2022/08/02 04:01:08;;;;;;;10.80;7.40;;;;;;;21.30;72.92;98700.55;25052;1313;3028183;-64
2022/08/02 04:03:39;;;;;;;14.70;7.50;;;;;;;21.68;71.28;98702.45;25064;1313;3055319;-66
2022/08/02 04:06:08;;;;;;;9.70;6.50;;;;;;;21.70;71.13;98695.52;25137;1313;3026601;-65
2022/08/02 04:08:38;;;;;;;12.10;6.90;;;;;;;21.59;71.30;98694.50;25111;1313;3055206;-64
2022/08/02 04:13:55;;;;;;;8.90;6.80;;;;;;;21.20;72.62;98681.92;25112;1313;3058547;-65
2022/08/02 04:16:38;;;;;;;5.10;4.30;;;;;;;21.08;72.70;98678.48;25055;1316;3027383;-64
2022/08/02 04:19:09;;;;;;;9.80;5.10;;;;;;;21.58;71.59;98681.23;25093;1316;3053883;-65
2022/08/02 04:21:40;;;;;;;7.10;5.00;;;;;;;21.97;70.06;98677.63;25097;1313;3026834;-66
2022/08/02 04:24:09;;;;;;;7.80;5.20;;;;;;;21.99;70.00;98676.33;25093;1316;3026906;-66
2022/08/02 04:26:38;;;;;;;7.60;5.30;;;;;;;21.87;70.14;98674.30;25069;1315;3026986;-64
2022/08/02 04:29:09;;;;;;;7.90;5.30;;;;;;;21.71;70.66;98673.28;25068;1316;3026384;-64
2022/08/02 04:31:39;;;;;;;7.70;5.50;;;;;;;21.51;71.82;98669.38;25071;1315;3028571;-66
2022/08/02 04:34:09;;;;;;;6.10;4.20;;;;;;;21.40;72.47;98665.90;25134;1312;3029026;-64
2022/08/02 04:36:38;;;;;;;7.70;4.40;;;;;;;21.84;70.67;98654.77;25086;1313;3026957;-65
2022/08/02 04:39:07;;;;;;;7.50;5.00;;;;;;;22.22;69.21;98645.46;25110;1316;3027312;-66
2022/08/02 04:41:38;;;;;;;7.60;4.50;;;;;;;22.21;68.21;98648.17;25098;1313;3057286;-65
2022/08/02 04:44:08;;;;;;;6.30;4.70;;;;;;;22.11;68.67;98652.91;25113;1313;3027046;-66
2022/08/02 04:46:38;;;;;;;6.10;4.40;;;;;;;21.96;68.86;98656.48;25120;1313;3029712;-65
2022/08/02 04:49:08;;;;;;;7.00;4.50;;;;;;;21.84;68.32;98657.73;25126;1313;3028668;-66
2022/08/02 04:51:39;;;;;;;7.50;4.50;;;;;;;21.73;69.01;98664.73;25071;1313;3026426;-64
2022/08/02 04:54:09;;;;;;;6.50;4.90;;;;;;;21.64;69.52;98669.11;25174;1313;3027078;-63
2022/08/02 04:56:39;;;;;;;7.40;3.80;;;;;;;21.57;70.12;98668.70;25126;1313;3026682;-65
2022/08/02 04:59:08;;;;;;;5.70;3.60;;;;;;;22.11;69.25;98660.63;25069;1315;3026805;-65
2022/08/02 05:01:41;;;;;;;6.10;3.80;;;;;;;22.57;67.05;98662.54;25112;1313;3026543;-64
2022/08/02 05:04:10;;;;;;;5.00;4.20;;;;;;;22.48;67.12;98664.38;25080;1316;3052032;-64
2022/08/02 05:06:41;;;;;;;5.90;4.40;;;;;;;22.49;67.19;98666.04;25115;1313;3029209;-65
2022/08/02 05:09:11;;;;;;;9.20;5.00;;;;;;;22.37;67.38;98669.45;25094;1313;3027874;-65
2022/08/02 05:11:40;;;;;;;6.00;4.50;;;;;;;22.24;67.79;98671.54;25086;1315;3050708;-65
2022/08/02 05:14:09;;;;;;;7.80;4.70;;;;;;;22.08;68.05;98673.45;25098;1316;3028032;-64
2022/08/02 05:16:38;;;;;;;10.90;5.70;;;;;;;21.93;68.67;98670.91;25098;1315;3026609;-67
2022/08/02 05:19:07;;;;;;;8.40;5.50;;;;;;;21.91;68.68;98673.52;25099;1313;3054610;-65
2022/08/02 05:21:36;;;;;;;6.30;3.70;;;;;;;21.94;68.77;98669.53;25109;1315;3026859;-65
2022/08/02 05:24:06;;;;;;;7.10;4.30;;;;;;;22.53;67.95;98669.64;25080;1314;3051216;-66
2022/08/02 05:26:35;;;;;;;7.40;4.70;;;;;;;23.02;66.30;98668.48;25128;1313;3027401;-64
2022/08/02 05:29:04;;;;;;;7.20;4.60;;;;;;;23.11;65.47;98667.56;25128;1313;3026934;-66
2022/08/02 05:31:34;;;;;;;8.80;5.20;;;;;;;23.05;65.42;98673.16;25088;1313;3048475;-65
2022/08/02 05:34:03;;;;;;;8.40;5.20;;;;;;;22.89;65.85;98674.27;25112;1313;3026496;-65
2022/08/02 05:36:33;;;;;;;9.50;5.40;;;;;;;22.71;65.89;98674.83;25106;1313;3026554;-64
2022/08/02 05:39:02;;;;;;;9.90;5.90;;;;;;;22.38;67.32;98676.04;25080;1315;3026843;-65
2022/08/02 05:41:31;;;;;;;10.80;5.40;;;;;;;22.30;67.51;98674.48;25089;1315;3054279;-64
2022/08/02 05:44:01;;;;;;;7.60;5.70;;;;;;;22.20;67.14;98671.23;25153;1313;3026461;-64
2022/08/02 05:46:31;;;;;;;11.20;5.40;;;;;;;22.23;67.30;98672.17;25113;1313;3026487;-64
2022/08/02 05:49:00;;;;;;;7.00;3.50;;;;;;;22.20;67.01;98665.29;25040;1315;3026285;-67
2022/08/02 05:51:37;;;;;;;8.30;4.40;;;;;;;22.90;65.51;98664.70;25062;1313;3050661;-64
2022/08/02 05:54:22;;;;;;;11.90;6.60;;;;;;;23.36;63.70;98667.73;25121;1315;3056114;-67
2022/08/02 05:57:04;;;;;;;13.40;6.70;;;;;;;23.37;63.89;98665.80;25039;1315;3052281;-66
2022/08/02 05:59:53;;;;;;;17.70;8.90;;;;;;;23.33;64.05;98666.11;25071;1315;3053667;-65
2022/08/02 06:02:29;;;;;;;18.10;8.90;;;;;;;23.20;64.63;98659.05;25035;1316;3051537;-63
2022/08/02 06:05:09;;;;;;;18.20;10.20;;;;;;;23.16;64.93;98657.19;25010;1316;3071017;-63
2022/08/02 06:07:43;;;;;;;16.80;9.80;;;;;;;23.07;65.06;98663.33;25100;1315;3050207;-66
2022/08/02 06:10:13;;;;;;;17.00;9.70;;;;;;;22.93;65.28;98667.09;25077;1315;3052707;-65
2022/08/02 06:13:10;;;;;;;18.40;9.50;;;;;;;22.83;66.12;98674.31;25061;1313;3055660;-66
2022/08/02 06:15:40;;;;;;;15.20;7.00;;;;;;;22.80;66.38;98675.38;25069;1313;3029849;-65
2022/08/02 06:18:09;;;;;;;15.60;7.90;;;;;;;23.37;65.13;98670.05;25079;1315;3026335;-66
2022/08/02 06:20:38;;;;;;;15.80;8.10;;;;;;;23.89;63.79;98669.92;25058;1313;3026486;-65
2022/08/02 06:23:07;;;;;;;13.60;7.50;;;;;;;24.02;63.40;98662.16;25075;1313;3055942;-64
2022/08/02 06:25:37;;;;;;;16.20;7.70;;;;;;;23.95;63.14;98652.14;25099;1313;3026503;-65
2022/08/02 06:28:06;;;;;;;12.10;7.70;;;;;;;23.82;63.23;98657.83;25068;1315;3028317;-63
2022/08/02 06:37:01;;;;;;;12.30;6.90;;;;;;;23.67;63.28;98675.90;32008;1315;3026253;-65
2022/08/02 06:39:49;;;;;;;14.20;8.20;;;;;;;23.98;62.23;98676.20;25079;1316;3051804;-64
2022/08/02 06:42:28;;;;;;;11.60;7.20;;;;;;;24.07;61.53;98678.02;25093;1317;3052656;-68
2022/08/02 06:44:58;;;;;;;13.70;7.40;;;;;;;23.91;62.28;98680.18;25025;1316;3058548;-66
2022/08/02 06:47:26;;;;;;;14.10;6.80;;;;;;;23.80;63.08;98687.23;25051;1316;3026327;-65
2022/08/02 06:49:57;;;;;;;10.40;6.50;;;;;;;23.77;62.26;98688.59;24671;1318;3569907;-64
2022/08/02 06:52:29;;;;;;;13.20;6.90;;;;;;;23.78;61.75;98686.77;25098;1315;3026650;-65
2022/08/02 06:55:00;;;;;;;12.50;7.80;;;;;;;23.67;62.17;98682.54;25085;1313;3027358;-64
2022/08/02 06:57:29;;;;;;;13.30;8.30;;;;;;;23.39;63.28;98682.19;25042;1315;3026574;-64
2022/08/02 07:00:01;;;;;;;15.10;8.50;;;;;;;23.17;64.38;98683.63;25144;1313;3026718;-65
2022/08/02 07:02:30;;;;;;;13.90;7.60;;;;;;;23.32;63.76;98685.52;25053;1313;3051467;-65
2022/08/02 07:04:59;;;;;;;14.20;8.20;;;;;;;23.41;63.40;98681.91;25052;1313;3030071;-64
2022/08/02 07:07:28;;;;;;;16.10;8.00;;;;;;;23.52;63.02;98676.52;25131;1313;3056824;-65
2022/08/02 07:09:58;;;;;;;15.80;7.90;;;;;;;23.58;62.82;98679.76;24987;1315;3028907;-64
2022/08/02 07:12:28;;;;;;;16.10;8.00;;;;;;;23.65;62.88;98680.59;25099;1313;3052647;-65
2022/08/02 07:15:02;;;;;;;18.00;8.70;;;;;;;23.75;62.81;98682.95;25109;1316;3026798;-65
2022/08/02 07:17:32;;;;;;;20.10;8.70;;;;;;;23.80;62.42;98675.56;25142;1314;3049323;-64
2022/08/02 07:20:02;;;;;;;19.20;8.20;;;;;;;23.69;62.35;98682.07;25044;1315;3026436;-63
2022/08/02 07:22:31;;;;;;;16.50;8.60;;;;;;;23.66;62.53;98682.45;25021;1316;3026679;-66
2022/08/02 07:25:00;;;;;;;13.40;8.80;;;;;;;23.74;62.62;98681.67;25059;1316;3026505;-64
2022/08/02 07:27:29;;;;;;;13.60;7.80;;;;;;;23.78;62.19;98687.31;25028;1315;3055663;-61
2022/08/02 07:29:58;;;;;;;13.20;7.90;;;;;;;23.80;62.40;98695.52;25088;1313;3026178;-63
2022/08/02 07:32:28;;;;;;;15.10;8.40;;;;;;;23.87;62.04;98701.44;25041;1313;3052339;-62
2022/08/02 07:34:58;;;;;;;16.70;8.80;;;;;;;23.87;61.99;98705.51;25051;1317;3026564;-64
2022/08/02 07:37:30;;;;;;;14.80;8.10;;;;;;;23.71;62.78;98713.63;25070;1313;3026289;-64
2022/08/02 07:39:59;;;;;;;22.90;12.50;;;;;;;23.75;62.70;98714.85;25080;1319;3026459;-64
2022/08/02 07:42:47;;;;;;;12.40;8.10;;;;;;;23.78;62.20;98711.06;25122;1315;3049014;-64
2022/08/02 07:45:17;;;;;;;14.20;8.20;;;;;;;23.87;61.82;98713.98;25055;1313;3026720;-61
2022/08/02 07:47:46;;;;;;;13.10;7.50;;;;;;;23.90;61.21;98713.80;25148;1313;3026893;-65
2022/08/02 07:50:16;;;;;;;13.00;7.10;;;;;;;23.91;60.93;98712.33;25090;1313;3026108;-62
2022/08/02 07:52:45;;;;;;;15.00;8.50;;;;;;;24.02;60.91;98715.27;25068;1315;3054634;-64
2022/08/02 07:55:15;;;;;;;16.00;8.30;;;;;;;24.11;60.20;98711.52;25114;1313;3026691;-62
2022/08/02 07:57:45;;;;;;;18.00;8.40;;;;;;;24.22;59.93;98712.83;25120;1315;3026432;-63
2022/08/02 08:00:16;;;;;;;14.10;8.70;;;;;;;24.32;59.73;98713.34;25096;1313;3027375;-66
2022/08/02 08:02:45;;;;;;;16.90;8.30;;;;;;;24.48;59.26;98722.57;25042;1315;3026935;-63
2022/08/02 08:05:14;;;;;;;14.30;9.30;;;;;;;24.53;59.01;98727.30;25097;1313;3026522;-63
2022/08/02 08:07:43;;;;;;;14.90;8.70;;;;;;;24.70;58.98;98729.23;25071;1316;3051711;-64
2022/08/02 08:10:12;;;;;;;12.00;8.10;;;;;;;24.86;58.93;98733.74;25090;1315;3026748;-63
2022/08/02 08:12:41;;;;;;;20.90;9.30;;;;;;;24.94;57.96;98732.84;25108;1313;3058141;-64
2022/08/02 08:15:11;;;;;;;18.00;9.20;;;;;;;25.08;57.90;98735.08;25053;1315;3026556;-63
2022/08/02 08:17:40;;;;;;;14.00;8.90;;;;;;;25.18;58.29;98732.49;25155;1313;3052245;-62
2022/08/02 08:20:10;;;;;;;14.80;8.50;;;;;;;25.22;58.37;98732.36;25079;1315;3026300;-66
2022/08/02 08:22:40;;;;;;;17.10;9.50;;;;;;;25.18;57.77;98736.70;25138;1313;3052067;-64
2022/08/02 08:25:09;;;;;;;15.20;8.10;;;;;;;25.07;57.61;98738.60;25085;1313;3026521;-64
2022/08/02 08:27:50;;;;;;;14.30;7.80;;;;;;;24.85;57.84;98743.48;25068;1315;3050955;-64
2022/08/02 08:30:23;;;;;;;13.20;7.20;;;;;;;24.89;57.59;98742.13;25038;1313;3052474;-64
2022/08/02 08:32:52;;;;;;;12.90;6.80;;;;;;;25.01;57.26;98742.73;25087;1315;3026348;-66
2022/08/02 08:35:21;;;;;;;11.20;6.60;;;;;;;25.03;56.47;98742.06;25040;1316;3048288;-62
2022/08/02 08:37:51;;;;;;;9.10;5.50;;;;;;;25.28;55.05;98739.65;25138;1313;3026844;-65
2022/08/02 08:40:20;;;;;;;16.70;6.20;;;;;;;25.18;55.02;98749.73;25110;1313;3070332;-65
2022/08/02 08:42:49;;;;;;;9.50;5.20;;;;;;;25.02;54.21;98753.10;25060;1313;3026616;-65
2022/08/02 08:45:18;;;;;;;8.60;4.70;;;;;;;25.05;54.71;98751.05;25111;1313;3052723;-69
2022/08/02 08:47:52;;;;;;;11.70;5.00;;;;;;;25.09;53.73;98753.11;25159;1315;3026507;-66
2022/08/02 08:50:24;;;;;;;10.00;4.20;;;;;;;25.25;53.28;98752.42;25126;1313;3053360;-70
2022/08/02 08:53:03;;;;;;;6.70;4.90;;;;;;;25.42;52.81;98754.41;25125;1313;3027103;-67
2022/08/02 08:55:35;;;;;;;7.60;4.80;;;;;;;25.54;52.64;98753.79;25128;1313;3069086;-67
2022/08/02 08:58:04;;;;;;;8.20;5.10;;;;;;;25.63;53.25;98757.05;25129;1316;3026890;-69
2022/08/02 09:00:35;;;;;;;8.70;5.50;;;;;;;25.72;52.97;98754.88;25140;1315;3026162;-66
2022/08/02 09:03:04;;;;;;;11.90;7.80;;;;;;;25.83;54.54;98749.06;25093;1318;3027362;-68
2022/08/02 09:05:38;;;;;;;10.80;7.20;;;;;;;25.92;54.97;98745.66;25119;1315;3025915;-67
2022/08/02 09:08:07;;;;;;;11.40;6.50;;;;;;;25.97;54.66;98745.14;25120;1315;3027322;-68
2022/08/02 09:10:44;;;;;;;12.00;6.70;;;;;;;25.99;54.45;98751.60;25102;1315;3028760;-68
2022/08/02 09:13:28;;;;;;;9.80;6.80;;;;;;;25.97;54.47;98755.52;25141;1315;3058388;-66
2022/08/02 09:16:05;;;;;;;14.00;6.60;;;;;;;26.03;54.50;98763.66;25114;1315;3049619;-66
2022/08/02 09:18:37;;;;;;;13.60;7.70;;;;;;;26.02;55.28;98765.23;25109;1318;3054081;-67
2022/08/02 09:21:09;;;;;;;10.20;7.70;;;;;;;26.07;55.95;98765.93;25131;1315;3028367;-66
2022/08/02 09:23:41;;;;;;;11.70;7.70;;;;;;;26.17;55.62;98767.45;25126;1315;3027602;-67
2022/08/02 09:26:11;;;;;;;16.40;7.30;;;;;;;26.18;54.51;98764.84;25138;1316;3026663;-66
2022/08/02 09:28:43;;;;;;;10.80;6.30;;;;;;;26.16;54.62;98768.08;25124;1318;3026506;-67
2022/08/02 09:31:17;;;;;;;11.50;7.40;;;;;;;26.25;54.94;98770.32;25146;1315;3026426;-68
2022/08/02 09:33:53;;;;;;;9.30;7.00;;;;;;;26.33;54.90;98776.72;25124;1315;3056827;-67
2022/08/02 09:36:23;;;;;;;13.60;7.60;;;;;;;26.38;54.18;98777.98;25087;1315;3050204;-68
2022/08/02 09:38:55;;;;;;;14.40;6.60;;;;;;;26.40;54.60;98783.86;25130;1315;3027154;-69
2022/08/02 09:41:25;;;;;;;14.50;8.20;;;;;;;26.41;55.55;98786.22;25107;1315;3027708;-68
2022/08/02 09:43:55;;;;;;;15.10;8.70;;;;;;;26.39;56.40;98789.01;25077;1318;3027570;-66
2022/08/02 09:46:26;;;;;;;14.20;8.40;;;;;;;26.39;56.77;98789.25;25112;1316;3026731;-67
2022/08/02 09:48:57;;;;;;;15.10;9.20;;;;;;;26.38;56.71;98786.85;25152;1315;3026897;-65
2022/08/02 09:51:47;;;;;;;23.70;9.50;;;;;;;26.38;56.88;98783.61;25117;1315;3026631;-65
2022/08/02 09:54:23;;;;;;;18.60;9.50;;;;;;;26.43;56.90;98785.45;25077;1318;3057644;-66
2022/08/02 09:56:54;;;;;;;14.20;8.30;;;;;;;26.51;56.62;98784.93;25116;1315;3049918;-65
2022/08/02 09:59:23;;;;;;;15.90;8.30;;;;;;;26.61;56.40;98784.19;25142;1316;3026394;-65
2022/08/02 10:01:53;;;;;;;16.50;9.80;;;;;;;26.75;55.89;98784.98;25104;1316;3027337;-66
2022/08/02 10:04:24;;;;;;;15.90;9.10;;;;;;;26.84;55.76;98779.47;25121;1316;3026541;-74
2022/08/02 10:06:53;;;;;;;14.00;8.40;;;;;;;26.90;55.46;98779.09;25127;1318;3030205;-78
2022/08/02 10:09:22;;;;;;;15.30;9.20;;;;;;;26.94;55.02;98776.80;25124;1320;3026752;-78
2022/08/02 10:11:51;;;;;;;15.10;8.50;;;;;;;27.11;54.76;98778.52;25158;1318;3068214;-75
2022/08/02 10:14:20;;;;;;;16.20;9.40;;;;;;;27.42;53.40;98778.64;25115;1318;3026989;-72
2022/08/02 10:16:50;;;;;;;16.10;9.70;;;;;;;27.63;53.02;98777.97;25135;1315;3029233;-72
2022/08/02 10:19:19;;;;;;;12.60;8.70;;;;;;;27.86;52.46;98780.67;25134;1318;3067921;-67
2022/08/02 10:22:03;;;;;;;14.00;8.60;;;;;;;27.96;52.04;98779.70;25153;1316;3029933;-71
2022/08/02 10:24:34;;;;;;;13.50;8.40;;;;;;;27.96;52.27;98777.70;25159;1316;3051577;-67
2022/08/02 10:27:03;;;;;;;11.20;7.80;;;;;;;27.92;52.73;98775.96;25142;1315;3026804;-69
2022/08/02 10:29:35;;;;;;;11.90;7.80;;;;;;;27.94;52.04;98777.06;25081;1315;3026665;-72
2022/08/02 10:32:08;;;;;;;14.10;8.50;;;;;;;28.00;51.96;98779.91;25154;1316;3028001;-70
2022/08/02 10:34:37;;;;;;;;;;;;;;;28.13;52.00;98778.60;25151;1315;3055492;-70
2022/08/02 10:37:07;;;;;;;17.10;7.80;;;;;;;28.18;50.99;98781.50;25159;1315;3026667;-68
2022/08/02 10:39:38;;;;;;;14.80;8.30;;;;;;;28.27;51.33;98780.05;25103;1315;3026677;-66
2022/08/02 10:42:07;;;;;;;12.40;8.40;;;;;;;28.35;50.83;98780.27;25165;1318;3027461;-67
2022/08/02 10:44:38;;;;;;;13.00;8.30;;;;;;;28.30;50.72;98776.83;25129;1315;3027248;-73
2022/08/02 10:47:17;;;;;;;13.60;8.30;;;;;;;28.30;50.95;98774.83;25104;1315;3026574;-70
2022/08/02 10:49:51;;;;;;;12.90;8.40;;;;;;;28.26;50.94;98775.76;25132;1313;3053256;-70
2022/08/02 10:52:22;;;;;;;18.20;9.30;;;;;;;28.21;50.83;98773.89;25109;1315;3052535;-71
2022/08/02 10:54:58;;;;;;;15.70;9.00;;;;;;;28.26;51.43;98771.64;25122;1315;3026484;-67
2022/08/02 10:57:29;;;;;;;12.70;7.90;;;;;;;28.34;50.89;98772.09;25145;1315;3048721;-68
2022/08/02 11:00:12;;;;;;;13.20;8.50;;;;;;;28.43;50.40;98766.78;25141;1315;3026463;-68
2022/08/02 11:02:43;;;;;;;17.30;9.20;;;;;;;28.33;50.70;98768.12;25179;1315;3052373;-68
2022/08/02 11:05:27;;;;;;;14.40;8.10;;;;;;;28.17;50.69;98765.39;25109;1315;3026492;-73
2022/08/02 11:07:56;;;;;;;13.90;8.30;;;;;;;28.04;49.87;98761.76;25151;1313;3049620;-65
2022/08/02 11:10:24;;;;;;;12.40;7.90;;;;;;;28.01;50.73;98762.82;25108;1313;3026618;-65
2022/08/02 11:13:00;;;;;;;13.10;8.10;;;;;;;28.07;51.32;98763.80;25026;1315;3058324;-65
2022/08/02 11:15:30;;;;;;;16.80;9.20;;;;;;;28.19;51.30;98759.55;25035;1315;3051596;-66
2022/08/02 11:17:58;;;;;;;18.00;9.20;;;;;;;28.29;51.17;98753.20;25143;1315;3026948;-67
2022/08/02 11:20:27;;;;;;;13.10;9.00;;;;;;;28.46;51.15;98750.17;25152;1313;3058478;-66
2022/08/02 11:23:17;;;;;;;21.10;10.10;;;;;;;28.58;50.19;98744.61;25113;1313;3026368;-64
2022/08/02 11:25:49;;;;;;;18.00;9.10;;;;;;;28.76;49.16;98737.29;25119;1313;3054823;-66
2022/08/02 11:28:17;;;;;;;14.80;9.30;;;;;;;28.89;48.44;98736.98;25084;1313;3026664;-65
2022/08/02 11:30:55;;;;;;;16.20;9.50;;;;;;;28.90;48.75;98736.71;25078;1315;3027389;-65
2022/08/02 11:33:31;;;;;;;16.60;9.80;;;;;;;28.79;49.70;98738.17;25120;1313;3056266;-65
2022/08/02 11:36:05;;;;;;;17.60;10.60;;;;;;;28.66;49.07;98734.91;25132;1313;3055877;-64
2022/08/02 11:38:34;;;;;;;20.50;11.50;;;;;;;28.48;49.56;98742.70;25102;1315;3026825;-65
2022/08/02 11:41:04;;;;;;;19.00;11.30;;;;;;;28.50;50.12;98741.63;25121;1315;3026272;-66
2022/08/02 11:43:33;;;;;;;21.10;11.80;;;;;;;28.66;50.25;98736.79;25076;1315;3058695;-65
2022/08/02 11:46:02;;;;;;;18.20;10.40;;;;;;;28.83;49.33;98733.45;25062;1314;3026950;-66